Have a Safe July 4th! 

Flight Track Log - Related Links

Times and Time Zones

All times are in EDT time to prevent confusion due to time zone crossing. See the N187CS flight status page for this flight to view local times or setup timezone preferences in your user account.

Time Position Orientation Groundspeed Altitude Reporting Facility
EDT Latitude Longitude Course Direction KTS MPH feet Rate Location/Type
Fri 11:15:00 AM 32.3142 -81.3090 341° North  Level FlightAware Approximate
Fri 11:16:00 AM 32.3477 -81.3262 331° Northwest  Level FlightAware Approximate
Fri 11:17:00 AM 32.3797 -81.3475 331° Northwest  Level FlightAware Approximate
Fri 11:18:00 AM 32.4117 -81.3688 331° Northwest  Level FlightAware Approximate
Fri 11:19:00 AM 32.4436 -81.3901 331° Northwest  Level FlightAware Approximate
Fri 11:20:00 AM 32.4756 -81.4114 331° Northwest  Level FlightAware Approximate
Fri 11:20:16 AM 32.4631 -81.4497 333° Northwest 148 170 6,000  Level Jacksonville Center
Fri 11:21:00 AM 32.5075 -81.4327 331° Northwest  Level FlightAware Approximate
Fri 11:21:16 AM 32.4967 -81.4689 334° Northwest 153 176 5,900  Level Jacksonville Center
Fri 11:22:00 AM 32.5395 -81.4540 331° Northwest  Level FlightAware Approximate
Fri 11:22:16 AM 32.5389 -81.4928 335° Northwest 153 176 5,900  Level Jacksonville Center
Fri 11:23:00 AM 32.5715 -81.4754 331° Northwest  Level FlightAware Approximate
Fri 11:23:16 AM 32.5767 -81.5144 334° Northwest 153 176 5,900  Level Jacksonville Center
Fri 11:24:00 AM 32.6038 -81.4959 333° Northwest  Level FlightAware Approximate
Fri 11:24:16 AM 32.6144 -81.5386 332° Northwest 153 176 5,900  Level Jacksonville Center
Fri 11:25:00 AM 32.6363 -81.5160 333° Northwest  Level FlightAware Approximate
Fri 11:25:16 AM 32.6458 -81.5578 333° Northwest 153 176 5,900  Level Jacksonville Center
Fri 11:26:16 AM 32.6881 -81.5844 332° Northwest 153 176 5,900  Level Jacksonville Center
Fri 11:27:16 AM 32.7258 -81.6036 337° Northwest 153 176 5,900  Level Jacksonville Center
Fri 11:28:16 AM 32.7614 -81.6278 330° Northwest 153 176 5,900  Level Jacksonville Center
Fri 11:30:00 AM 32.8213 -81.6529 341° North  Level FlightAware Approximate
Fri 11:37:00 AM 33.0575 -81.7763 333° Northwest  Level FlightAware Approximate
Fri 11:38:00 AM 33.0901 -81.7964 333° Northwest  Level FlightAware Approximate
Fri 11:39:00 AM 33.1227 -81.8165 333° Northwest  Level FlightAware Approximate
Fri 11:40:00 AM 33.1550 -81.8371 328° Northwest  Level FlightAware Approximate
Fri 11:41:00 AM 33.1861 -81.8604 328° Northwest  Level FlightAware Approximate
Fri 11:42:00 AM 33.2172 -81.8836 332° Northwest  Level FlightAware Approximate
Fri 11:43:00 AM 33.2495 -81.9042 332° Northwest  Level FlightAware Approximate
Fri 11:44:00 AM 33.2819 -81.9248 332° Northwest  Level FlightAware Approximate
Fri 11:45:00 AM 33.3143 -81.9454 332° Northwest  Level FlightAware Approximate

Login

Don't have an account? Register now (free) for customized features, flight alerts, and more!